Terminal Aerodrome Forecast
Issued by NWS

Home | Current Version | Previous Version | Text Only | Print | Product List | Glossary On
Versions: 1 2 3 4 5 6 7 8 9 10 11 12 13 14 15
000
FTUS41 KBTV 120535
TAFMSS
TAF
KMSS 120535Z 1206/1306 06011KT 2SM -SN BR OVC025
     FM121000 06012KT 1 1/2SM -SN BR OVC025
     FM122200 04008G14KT 1 1/2SM -SN BR OVC010
     FM130000 35007KT 2SM -SHSN BR OVC010
     FM130200 31006KT 2SM -SHSN BR OVC015=

USA.gov is the U.S. government's official web portal to all federal, state and local government web resources and services.